sensor_id;sensor_type;location;lat;lon;timestamp;P1;durP1;ratioP1;P2;durP2;ratioP2
4355;SDS011;64374;51.482;7.408;2023-05-17T00:02:53;2.43;;;1.87;;
4355;SDS011;64374;51.482;7.408;2023-05-17T00:05:22;6.20;;;2.30;;
4355;SDS011;64374;51.482;7.408;2023-05-17T00:07:50;8.27;;;2.50;;
4355;SDS011;64374;51.482;7.408;2023-05-17T00:10:18;4.17;;;2.00;;
4355;SDS011;64374;51.482;7.408;2023-05-17T00:12:47;7.10;;;2.77;;
4355;SDS011;64374;51.482;7.408;2023-05-17T00:15:16;10.43;;;2.67;;
4355;SDS011;64374;51.482;7.408;2023-05-17T00:17:45;3.13;;;2.10;;
4355;SDS011;64374;51.482;7.408;2023-05-17T00:20:14;4.33;;;2.13;;
4355;SDS011;64374;51.482;7.408;2023-05-17T00:22:42;4.73;;;2.70;;
4355;SDS011;64374;51.482;7.408;2023-05-17T00:25:11;5.70;;;2.70;;
4355;SDS011;64374;51.482;7.408;2023-05-17T00:27:39;3.60;;;2.47;;
4355;SDS011;64374;51.482;7.408;2023-05-17T00:30:09;6.63;;;2.20;;
4355;SDS011;64374;51.482;7.408;2023-05-17T00:32:39;4.27;;;2.20;;
4355;SDS011;64374;51.482;7.408;2023-05-17T00:35:08;6.07;;;3.30;;
4355;SDS011;64374;51.482;7.408;2023-05-17T00:37:36;3.90;;;2.10;;
4355;SDS011;64374;51.482;7.408;2023-05-17T00:40:05;4.77;;;2.37;;
4355;SDS011;64374;51.482;7.408;2023-05-17T00:42:34;4.00;;;1.70;;
4355;SDS011;64374;51.482;7.408;2023-05-17T00:45:03;6.03;;;2.20;;
4355;SDS011;64374;51.482;7.408;2023-05-17T00:47:32;5.50;;;2.13;;
4355;SDS011;64374;51.482;7.408;2023-05-17T00:50:02;11.20;;;3.23;;
4355;SDS011;64374;51.482;7.408;2023-05-17T00:52:30;10.47;;;2.47;;
4355;SDS011;64374;51.482;7.408;2023-05-17T00:54:59;6.80;;;3.20;;
4355;SDS011;64374;51.482;7.408;2023-05-17T00:57:27;6.83;;;2.13;;
4355;SDS011;64374;51.482;7.408;2023-05-17T00:59:59;6.73;;;2.63;;
4355;SDS011;64374;51.482;7.408;2023-05-17T01:02:31;6.70;;;2.53;;
4355;SDS011;64374;51.482;7.408;2023-05-17T01:05:01;14.50;;;4.00;;
4355;SDS011;64374;51.482;7.408;2023-05-17T01:07:34;6.13;;;3.03;;
4355;SDS011;64374;51.482;7.408;2023-05-17T01:10:03;4.63;;;2.90;;
4355;SDS011;64374;51.482;7.408;2023-05-17T01:12:36;4.70;;;2.10;;
4355;SDS011;64374;51.482;7.408;2023-05-17T01:15:18;7.07;;;2.60;;
4355;SDS011;64374;51.482;7.408;2023-05-17T01:17:53;9.60;;;2.83;;
4355;SDS011;64374;51.482;7.408;2023-05-17T01:20:35;3.30;;;2.77;;
4355;SDS011;64374;51.482;7.408;2023-05-17T01:23:09;11.93;;;2.90;;
4355;SDS011;64374;51.482;7.408;2023-05-17T01:26:02;5.13;;;2.50;;
4355;SDS011;64374;51.482;7.408;2023-05-17T01:28:36;5.03;;;2.47;;
4355;SDS011;64374;51.482;7.408;2023-05-17T01:31:06;11.63;;;2.50;;
4355;SDS011;64374;51.482;7.408;2023-05-17T01:33:36;8.57;;;2.80;;
4355;SDS011;64374;51.482;7.408;2023-05-17T01:36:07;6.50;;;2.50;;
4355;SDS011;64374;51.482;7.408;2023-05-17T01:38:36;7.93;;;3.37;;
4355;SDS011;64374;51.482;7.408;2023-05-17T01:41:09;6.30;;;3.03;;
4355;SDS011;64374;51.482;7.408;2023-05-17T01:44:09;5.30;;;2.63;;
4355;SDS011;64374;51.482;7.408;2023-05-17T01:46:46;7.20;;;2.70;;
4355;SDS011;64374;51.482;7.408;2023-05-17T01:49:20;5.60;;;3.30;;
4355;SDS011;64374;51.482;7.408;2023-05-17T01:51:53;10.10;;;3.70;;
4355;SDS011;64374;51.482;7.408;2023-05-17T01:54:30;5.50;;;2.77;;
4355;SDS011;64374;51.482;7.408;2023-05-17T01:57:03;5.03;;;2.63;;
4355;SDS011;64374;51.482;7.408;2023-05-17T01:59:37;13.57;;;3.03;;
4355;SDS011;64374;51.482;7.408;2023-05-17T02:02:06;10.80;;;3.47;;
4355;SDS011;64374;51.482;7.408;2023-05-17T02:04:35;9.10;;;4.30;;
4355;SDS011;64374;51.482;7.408;2023-05-17T02:07:03;11.83;;;6.60;;
4355;SDS011;64374;51.482;7.408;2023-05-17T02:09:32;19.43;;;9.53;;
4355;SDS011;64374;51.482;7.408;2023-05-17T02:12:00;16.57;;;9.47;;
4355;SDS011;64374;51.482;7.408;2023-05-17T02:14:32;17.00;;;9.90;;
4355;SDS011;64374;51.482;7.408;2023-05-17T02:17:03;11.73;;;8.27;;
4355;SDS011;64374;51.482;7.408;2023-05-17T02:19:31;14.40;;;8.27;;
4355;SDS011;64374;51.482;7.408;2023-05-17T02:22:00;14.43;;;8.70;;
4355;SDS011;64374;51.482;7.408;2023-05-17T02:24:50;20.33;;;8.73;;
4355;SDS011;64374;51.482;7.408;2023-05-17T02:27:18;15.27;;;7.87;;
4355;SDS011;64374;51.482;7.408;2023-05-17T02:29:48;10.77;;;5.90;;
4355;SDS011;64374;51.482;7.408;2023-05-17T02:32:18;12.07;;;6.03;;
4355;SDS011;64374;51.482;7.408;2023-05-17T02:34:47;14.73;;;5.53;;
4355;SDS011;64374;51.482;7.408;2023-05-17T02:37:15;13.80;;;5.93;;
4355;SDS011;64374;51.482;7.408;2023-05-17T02:39:44;13.63;;;5.53;;
4355;SDS011;64374;51.482;7.408;2023-05-17T02:42:16;9.93;;;5.03;;
4355;SDS011;64374;51.482;7.408;2023-05-17T02:44:45;14.43;;;5.33;;
4355;SDS011;64374;51.482;7.408;2023-05-17T02:47:23;7.33;;;3.97;;
4355;SDS011;64374;51.482;7.408;2023-05-17T02:49:51;12.10;;;4.30;;
4355;SDS011;64374;51.482;7.408;2023-05-17T02:52:20;12.23;;;4.70;;
4355;SDS011;64374;51.482;7.408;2023-05-17T02:54:48;8.43;;;3.30;;
4355;SDS011;64374;51.482;7.408;2023-05-17T02:57:17;7.97;;;4.27;;
4355;SDS011;64374;51.482;7.408;2023-05-17T02:59:46;7.50;;;4.23;;
4355;SDS011;64374;51.482;7.408;2023-05-17T03:02:17;9.03;;;4.50;;
4355;SDS011;64374;51.482;7.408;2023-05-17T03:04:47;15.63;;;4.90;;
4355;SDS011;64374;51.482;7.408;2023-05-17T03:07:16;11.33;;;4.67;;
4355;SDS011;64374;51.482;7.408;2023-05-17T03:09:45;8.30;;;4.17;;
4355;SDS011;64374;51.482;7.408;2023-05-17T03:12:14;15.30;;;4.30;;
4355;SDS011;64374;51.482;7.408;2023-05-17T03:14:43;8.87;;;4.17;;
4355;SDS011;64374;51.482;7.408;2023-05-17T03:17:12;6.00;;;3.27;;
4355;SDS011;64374;51.482;7.408;2023-05-17T03:19:40;18.47;;;4.70;;
4355;SDS011;64374;51.482;7.408;2023-05-17T03:22:10;9.50;;;3.60;;
4355;SDS011;64374;51.482;7.408;2023-05-17T03:24:39;12.50;;;4.00;;
4355;SDS011;64374;51.482;7.408;2023-05-17T03:27:09;14.40;;;4.93;;
4355;SDS011;64374;51.482;7.408;2023-05-17T03:29:38;9.53;;;4.33;;
4355;SDS011;64374;51.482;7.408;2023-05-17T03:32:07;8.63;;;4.23;;
4355;SDS011;64374;51.482;7.408;2023-05-17T03:34:35;6.70;;;3.47;;
4355;SDS011;64374;51.482;7.408;2023-05-17T03:37:04;15.27;;;5.17;;
4355;SDS011;64374;51.482;7.408;2023-05-17T03:39:34;13.40;;;4.30;;
4355;SDS011;64374;51.482;7.408;2023-05-17T03:42:02;11.53;;;4.77;;
4355;SDS011;64374;51.482;7.408;2023-05-17T03:44:32;7.70;;;4.80;;
4355;SDS011;64374;51.482;7.408;2023-05-17T03:47:01;9.60;;;3.93;;
4355;SDS011;64374;51.482;7.408;2023-05-17T03:49:30;7.37;;;4.80;;
4355;SDS011;64374;51.482;7.408;2023-05-17T03:52:00;8.07;;;4.10;;
4355;SDS011;64374;51.482;7.408;2023-05-17T03:54:29;8.63;;;4.00;;
4355;SDS011;64374;51.482;7.408;2023-05-17T03:57:00;11.67;;;4.40;;
4355;SDS011;64374;51.482;7.408;2023-05-17T03:59:30;18.17;;;6.10;;
4355;SDS011;64374;51.482;7.408;2023-05-17T04:01:58;11.93;;;4.37;;
4355;SDS011;64374;51.482;7.408;2023-05-17T04:04:29;15.83;;;4.13;;
4355;SDS011;64374;51.482;7.408;2023-05-17T04:07:00;11.83;;;4.30;;
4355;SDS011;64374;51.482;7.408;2023-05-17T04:09:31;13.57;;;4.70;;
4355;SDS011;64374;51.482;7.408;2023-05-17T04:12:03;11.47;;;4.77;;
4355;SDS011;64374;51.482;7.408;2023-05-17T04:14:32;12.07;;;4.40;;
4355;SDS011;64374;51.482;7.408;2023-05-17T04:17:01;7.93;;;4.30;;
4355;SDS011;64374;51.482;7.408;2023-05-17T04:19:29;19.17;;;4.90;;
4355;SDS011;64374;51.482;7.408;2023-05-17T04:21:58;20.10;;;5.20;;
4355;SDS011;64374;51.482;7.408;2023-05-17T04:24:28;15.90;;;5.60;;
4355;SDS011;64374;51.482;7.408;2023-05-17T04:26:56;11.50;;;5.40;;
4355;SDS011;64374;51.482;7.408;2023-05-17T04:29:35;12.40;;;4.70;;
4355;SDS011;64374;51.482;7.408;2023-05-17T04:32:04;14.73;;;4.70;;
4355;SDS011;64374;51.482;7.408;2023-05-17T04:34:33;14.33;;;5.53;;
4355;SDS011;64374;51.482;7.408;2023-05-17T04:37:04;14.30;;;5.33;;
4355;SDS011;64374;51.482;7.408;2023-05-17T04:39:36;7.67;;;4.30;;
4355;SDS011;64374;51.482;7.408;2023-05-17T04:42:05;17.70;;;5.43;;
4355;SDS011;64374;51.482;7.408;2023-05-17T04:44:41;10.87;;;4.27;;
4355;SDS011;64374;51.482;7.408;2023-05-17T04:47:10;15.20;;;5.37;;
4355;SDS011;64374;51.482;7.408;2023-05-17T04:49:39;16.63;;;5.70;;
4355;SDS011;64374;51.482;7.408;2023-05-17T04:52:09;18.90;;;6.97;;
4355;SDS011;64374;51.482;7.408;2023-05-17T04:54:37;14.90;;;5.63;;
4355;SDS011;64374;51.482;7.408;2023-05-17T04:57:07;14.70;;;5.07;;
4355;SDS011;64374;51.482;7.408;2023-05-17T04:59:52;14.70;;;4.73;;
4355;SDS011;64374;51.482;7.408;2023-05-17T05:02:22;19.43;;;5.37;;
4355;SDS011;64374;51.482;7.408;2023-05-17T05:04:53;21.40;;;5.97;;
4355;SDS011;64374;51.482;7.408;2023-05-17T05:07:26;10.43;;;5.03;;
4355;SDS011;64374;51.482;7.408;2023-05-17T05:09:54;13.30;;;4.93;;
4355;SDS011;64374;51.482;7.408;2023-05-17T05:12:24;24.77;;;5.97;;
4355;SDS011;64374;51.482;7.408;2023-05-17T05:14:53;15.40;;;4.90;;
4355;SDS011;64374;51.482;7.408;2023-05-17T05:17:23;11.30;;;4.93;;
4355;SDS011;64374;51.482;7.408;2023-05-17T05:19:52;16.97;;;5.63;;
4355;SDS011;64374;51.482;7.408;2023-05-17T05:22:20;10.90;;;4.90;;
4355;SDS011;64374;51.482;7.408;2023-05-17T05:24:50;10.90;;;5.00;;
4355;SDS011;64374;51.482;7.408;2023-05-17T05:27:19;14.37;;;5.03;;
4355;SDS011;64374;51.482;7.408;2023-05-17T05:29:49;16.47;;;5.60;;
4355;SDS011;64374;51.482;7.408;2023-05-17T05:32:19;16.60;;;5.27;;
4355;SDS011;64374;51.482;7.408;2023-05-17T05:34:48;12.47;;;5.33;;
4355;SDS011;64374;51.482;7.408;2023-05-17T05:37:16;17.00;;;5.00;;
4355;SDS011;64374;51.482;7.408;2023-05-17T05:39:46;11.97;;;4.40;;
4355;SDS011;64374;51.482;7.408;2023-05-17T05:42:15;9.70;;;3.83;;
4355;SDS011;64374;51.482;7.408;2023-05-17T05:44:43;20.03;;;7.33;;
4355;SDS011;64374;51.482;7.408;2023-05-17T05:47:12;18.53;;;4.50;;
4355;SDS011;64374;51.482;7.408;2023-05-17T05:49:42;10.63;;;3.63;;
4355;SDS011;64374;51.482;7.408;2023-05-17T05:52:10;12.50;;;4.40;;
4355;SDS011;64374;51.482;7.408;2023-05-17T05:54:40;12.27;;;3.77;;
4355;SDS011;64374;51.482;7.408;2023-05-17T05:57:09;11.97;;;3.50;;
4355;SDS011;64374;51.482;7.408;2023-05-17T05:59:38;9.73;;;3.50;;
4355;SDS011;64374;51.482;7.408;2023-05-17T06:02:06;15.27;;;4.17;;
4355;SDS011;64374;51.482;7.408;2023-05-17T06:04:35;17.87;;;4.37;;
4355;SDS011;64374;51.482;7.408;2023-05-17T06:07:14;9.73;;;3.70;;
4355;SDS011;64374;51.482;7.408;2023-05-17T06:09:42;12.50;;;4.80;;
4355;SDS011;64374;51.482;7.408;2023-05-17T06:12:11;19.37;;;6.23;;
4355;SDS011;64374;51.482;7.408;2023-05-17T06:14:39;24.20;;;6.13;;
4355;SDS011;64374;51.482;7.408;2023-05-17T06:17:10;28.20;;;7.00;;
4355;SDS011;64374;51.482;7.408;2023-05-17T06:19:38;18.90;;;6.20;;
4355;SDS011;64374;51.482;7.408;2023-05-17T06:22:29;16.90;;;5.40;;
4355;SDS011;64374;51.482;7.408;2023-05-17T06:24:58;17.53;;;5.00;;
4355;SDS011;64374;51.482;7.408;2023-05-17T06:27:26;30.53;;;5.30;;
4355;SDS011;64374;51.482;7.408;2023-05-17T06:29:54;18.90;;;4.90;;
4355;SDS011;64374;51.482;7.408;2023-05-17T06:32:22;20.43;;;5.27;;
4355;SDS011;64374;51.482;7.408;2023-05-17T06:34:52;11.50;;;4.40;;
4355;SDS011;64374;51.482;7.408;2023-05-17T06:37:23;8.53;;;3.60;;
4355;SDS011;64374;51.482;7.408;2023-05-17T06:39:52;26.00;;;4.87;;
4355;SDS011;64374;51.482;7.408;2023-05-17T06:42:35;17.43;;;3.77;;
4355;SDS011;64374;51.482;7.408;2023-05-17T06:45:06;13.90;;;3.20;;
4355;SDS011;64374;51.482;7.408;2023-05-17T06:47:35;19.77;;;4.77;;
4355;SDS011;64374;51.482;7.408;2023-05-17T06:50:05;19.00;;;4.20;;
4355;SDS011;64374;51.482;7.408;2023-05-17T06:52:35;9.37;;;2.73;;
4355;SDS011;64374;51.482;7.408;2023-05-17T06:55:06;11.43;;;3.23;;
4355;SDS011;64374;51.482;7.408;2023-05-17T06:57:36;9.00;;;4.57;;
4355;SDS011;64374;51.482;7.408;2023-05-17T07:00:09;9.33;;;2.50;;
4355;SDS011;64374;51.482;7.408;2023-05-17T07:02:38;21.23;;;4.23;;
4355;SDS011;64374;51.482;7.408;2023-05-17T07:05:07;11.07;;;3.17;;
4355;SDS011;64374;51.482;7.408;2023-05-17T07:07:35;7.17;;;2.40;;
4355;SDS011;64374;51.482;7.408;2023-05-17T07:10:05;12.70;;;2.97;;
4355;SDS011;64374;51.482;7.408;2023-05-17T07:12:34;12.70;;;3.20;;
4355;SDS011;64374;51.482;7.408;2023-05-17T07:15:03;17.80;;;3.10;;
4355;SDS011;64374;51.482;7.408;2023-05-17T07:17:32;9.67;;;2.70;;
4355;SDS011;64374;51.482;7.408;2023-05-17T07:20:00;14.63;;;3.77;;
4355;SDS011;64374;51.482;7.408;2023-05-17T07:22:28;12.20;;;4.07;;
4355;SDS011;64374;51.482;7.408;2023-05-17T07:24:56;11.77;;;2.63;;
4355;SDS011;64374;51.482;7.408;2023-05-17T07:27:26;10.13;;;2.30;;
4355;SDS011;64374;51.482;7.408;2023-05-17T07:29:55;8.83;;;2.60;;
4355;SDS011;64374;51.482;7.408;2023-05-17T07:32:23;7.63;;;2.40;;
4355;SDS011;64374;51.482;7.408;2023-05-17T07:34:51;22.50;;;3.07;;
4355;SDS011;64374;51.482;7.408;2023-05-17T07:37:23;11.80;;;3.00;;
4355;SDS011;64374;51.482;7.408;2023-05-17T07:39:51;11.30;;;2.97;;
4355;SDS011;64374;51.482;7.408;2023-05-17T07:42:19;14.37;;;3.00;;
4355;SDS011;64374;51.482;7.408;2023-05-17T07:44:50;8.63;;;2.67;;
4355;SDS011;64374;51.482;7.408;2023-05-17T07:47:20;8.43;;;2.57;;
4355;SDS011;64374;51.482;7.408;2023-05-17T07:49:49;10.83;;;2.20;;
4355;SDS011;64374;51.482;7.408;2023-05-17T07:52:17;9.93;;;2.80;;
4355;SDS011;64374;51.482;7.408;2023-05-17T07:54:46;10.80;;;3.07;;
4355;SDS011;64374;51.482;7.408;2023-05-17T07:57:14;7.17;;;3.20;;
4355;SDS011;64374;51.482;7.408;2023-05-17T07:59:44;19.07;;;3.10;;
4355;SDS011;64374;51.482;7.408;2023-05-17T08:02:13;10.50;;;2.50;;
4355;SDS011;64374;51.482;7.408;2023-05-17T08:04:42;6.80;;;2.00;;
4355;SDS011;64374;51.482;7.408;2023-05-17T08:07:13;12.30;;;2.43;;
4355;SDS011;64374;51.482;7.408;2023-05-17T08:09:43;14.50;;;2.50;;
4355;SDS011;64374;51.482;7.408;2023-05-17T08:12:11;15.07;;;2.20;;
4355;SDS011;64374;51.482;7.408;2023-05-17T08:14:39;11.40;;;3.00;;
4355;SDS011;64374;51.482;7.408;2023-05-17T08:17:08;10.33;;;2.87;;
4355;SDS011;64374;51.482;7.408;2023-05-17T08:19:38;10.90;;;2.53;;
4355;SDS011;64374;51.482;7.408;2023-05-17T08:22:06;6.57;;;1.97;;
4355;SDS011;64374;51.482;7.408;2023-05-17T08:24:37;6.13;;;2.23;;
4355;SDS011;64374;51.482;7.408;2023-05-17T08:27:05;11.37;;;2.90;;
4355;SDS011;64374;51.482;7.408;2023-05-17T08:29:36;5.43;;;1.93;;
4355;SDS011;64374;51.482;7.408;2023-05-17T08:32:08;10.67;;;2.63;;
4355;SDS011;64374;51.482;7.408;2023-05-17T08:34:38;3.37;;;1.80;;
4355;SDS011;64374;51.482;7.408;2023-05-17T08:37:08;10.77;;;2.80;;
4355;SDS011;64374;51.482;7.408;2023-05-17T08:39:36;9.57;;;2.30;;
4355;SDS011;64374;51.482;7.408;2023-05-17T08:42:06;11.60;;;2.77;;
4355;SDS011;64374;51.482;7.408;2023-05-17T08:44:35;9.43;;;2.17;;
4355;SDS011;64374;51.482;7.408;2023-05-17T08:47:05;9.87;;;2.73;;
4355;SDS011;64374;51.482;7.408;2023-05-17T08:49:38;8.30;;;1.90;;
4355;SDS011;64374;51.482;7.408;2023-05-17T08:52:11;12.80;;;2.63;;
4355;SDS011;64374;51.482;7.408;2023-05-17T08:54:40;9.90;;;2.77;;
4355;SDS011;64374;51.482;7.408;2023-05-17T08:57:08;10.60;;;2.93;;
4355;SDS011;64374;51.482;7.408;2023-05-17T08:59:41;13.00;;;1.80;;
4355;SDS011;64374;51.482;7.408;2023-05-17T09:02:14;5.43;;;1.77;;
4355;SDS011;64374;51.482;7.408;2023-05-17T09:04:44;11.97;;;2.20;;
4355;SDS011;64374;51.482;7.408;2023-05-17T09:07:15;10.43;;;2.67;;
4355;SDS011;64374;51.482;7.408;2023-05-17T09:09:49;9.53;;;2.13;;
4355;SDS011;64374;51.482;7.408;2023-05-17T09:12:19;13.90;;;2.67;;
4355;SDS011;64374;51.482;7.408;2023-05-17T09:14:51;10.40;;;2.67;;
4355;SDS011;64374;51.482;7.408;2023-05-17T09:17:20;10.40;;;2.80;;
4355;SDS011;64374;51.482;7.408;2023-05-17T09:19:49;8.60;;;2.30;;
4355;SDS011;64374;51.482;7.408;2023-05-17T09:22:19;8.73;;;2.10;;
4355;SDS011;64374;51.482;7.408;2023-05-17T09:24:49;7.93;;;2.40;;
4355;SDS011;64374;51.482;7.408;2023-05-17T09:27:18;7.83;;;2.10;;
4355;SDS011;64374;51.482;7.408;2023-05-17T09:29:46;5.47;;;2.17;;
4355;SDS011;64374;51.482;7.408;2023-05-17T09:32:15;10.57;;;2.53;;
4355;SDS011;64374;51.482;7.408;2023-05-17T09:34:46;7.60;;;2.00;;
4355;SDS011;64374;51.482;7.408;2023-05-17T09:37:18;10.87;;;2.10;;
4355;SDS011;64374;51.482;7.408;2023-05-17T09:39:46;7.27;;;2.40;;
4355;SDS011;64374;51.482;7.408;2023-05-17T09:42:15;4.90;;;2.27;;
4355;SDS011;64374;51.482;7.408;2023-05-17T09:44:47;10.53;;;2.70;;
4355;SDS011;64374;51.482;7.408;2023-05-17T09:47:21;11.53;;;2.90;;
4355;SDS011;64374;51.482;7.408;2023-05-17T09:49:51;7.47;;;2.40;;
4355;SDS011;64374;51.482;7.408;2023-05-17T09:52:22;6.33;;;2.20;;
4355;SDS011;64374;51.482;7.408;2023-05-17T09:54:53;13.70;;;2.33;;
4355;SDS011;64374;51.482;7.408;2023-05-17T09:57:24;10.30;;;2.67;;
4355;SDS011;64374;51.482;7.408;2023-05-17T09:59:55;7.33;;;2.30;;
4355;SDS011;64374;51.482;7.408;2023-05-17T10:02:25;5.83;;;2.60;;
4355;SDS011;64374;51.482;7.408;2023-05-17T10:04:59;10.83;;;2.23;;
4355;SDS011;64374;51.482;7.408;2023-05-17T10:07:34;12.23;;;2.87;;
4355;SDS011;64374;51.482;7.408;2023-05-17T10:10:04;14.63;;;3.00;;
4355;SDS011;64374;51.482;7.408;2023-05-17T10:12:34;10.80;;;2.43;;
4355;SDS011;64374;51.482;7.408;2023-05-17T10:15:06;6.67;;;2.97;;
4355;SDS011;64374;51.482;7.408;2023-05-17T10:17:41;7.27;;;2.57;;
4355;SDS011;64374;51.482;7.408;2023-05-17T10:20:15;12.07;;;2.93;;
4355;SDS011;64374;51.482;7.408;2023-05-17T10:22:45;11.23;;;2.00;;
4355;SDS011;64374;51.482;7.408;2023-05-17T10:25:16;11.93;;;2.73;;
4355;SDS011;64374;51.482;7.408;2023-05-17T10:27:45;10.30;;;2.97;;
4355;SDS011;64374;51.482;7.408;2023-05-17T10:30:16;8.33;;;2.40;;
4355;SDS011;64374;51.482;7.408;2023-05-17T10:32:47;6.60;;;1.83;;
4355;SDS011;64374;51.482;7.408;2023-05-17T10:35:18;9.10;;;2.73;;
4355;SDS011;64374;51.482;7.408;2023-05-17T10:37:50;9.17;;;2.23;;
4355;SDS011;64374;51.482;7.408;2023-05-17T10:40:19;27.43;;;3.60;;
4355;SDS011;64374;51.482;7.408;2023-05-17T10:42:50;8.47;;;2.13;;
4355;SDS011;64374;51.482;7.408;2023-05-17T10:45:20;8.63;;;2.27;;
4355;SDS011;64374;51.482;7.408;2023-05-17T10:47:52;7.03;;;3.03;;
4355;SDS011;64374;51.482;7.408;2023-05-17T10:50:22;4.90;;;1.87;;
4355;SDS011;64374;51.482;7.408;2023-05-17T10:52:53;7.33;;;2.30;;
4355;SDS011;64374;51.482;7.408;2023-05-17T10:55:35;8.87;;;1.90;;
4355;SDS011;64374;51.482;7.408;2023-05-17T10:58:10;23.67;;;2.80;;
4355;SDS011;64374;51.482;7.408;2023-05-17T11:00:44;76.40;;;8.33;;
4355;SDS011;64374;51.482;7.408;2023-05-17T11:03:18;20.43;;;3.30;;
4355;SDS011;64374;51.482;7.408;2023-05-17T11:09:07;10.73;;;2.93;;
4355;SDS011;64374;51.482;7.408;2023-05-17T11:17:22;11.30;;;2.87;;
4355;SDS011;64374;51.482;7.408;2023-05-17T11:20:00;6.50;;;2.43;;
4355;SDS011;64374;51.482;7.408;2023-05-17T11:22:59;6.40;;;2.10;;
4355;SDS011;64374;51.482;7.408;2023-05-17T11:25:30;18.43;;;3.20;;
4355;SDS011;64374;51.482;7.408;2023-05-17T11:28:05;79.53;;;7.30;;
4355;SDS011;64374;51.482;7.408;2023-05-17T11:30:39;23.83;;;3.90;;
4355;SDS011;64374;51.482;7.408;2023-05-17T11:33:09;13.13;;;2.33;;
4355;SDS011;64374;51.482;7.408;2023-05-17T11:35:56;12.07;;;1.97;;
4355;SDS011;64374;51.482;7.408;2023-05-17T11:38:31;5.33;;;2.00;;
4355;SDS011;64374;51.482;7.408;2023-05-17T11:43:51;8.90;;;2.00;;
4355;SDS011;64374;51.482;7.408;2023-05-17T11:46:20;8.07;;;1.90;;
4355;SDS011;64374;51.482;7.408;2023-05-17T11:49:12;3.87;;;1.93;;
4355;SDS011;64374;51.482;7.408;2023-05-17T11:52:01;6.23;;;1.90;;
4355;SDS011;64374;51.482;7.408;2023-05-17T11:54:30;20.23;;;3.33;;
4355;SDS011;64374;51.482;7.408;2023-05-17T11:57:00;17.67;;;3.47;;
4355;SDS011;64374;51.482;7.408;2023-05-17T11:59:35;9.13;;;2.20;;
4355;SDS011;64374;51.482;7.408;2023-05-17T12:02:06;10.00;;;2.83;;
4355;SDS011;64374;51.482;7.408;2023-05-17T12:04:34;7.43;;;2.37;;
4355;SDS011;64374;51.482;7.408;2023-05-17T12:07:07;6.40;;;2.13;;
4355;SDS011;64374;51.482;7.408;2023-05-17T12:09:37;6.27;;;2.20;;
4355;SDS011;64374;51.482;7.408;2023-05-17T12:12:09;6.70;;;2.30;;
4355;SDS011;64374;51.482;7.408;2023-05-17T12:14:37;7.83;;;2.83;;
4355;SDS011;64374;51.482;7.408;2023-05-17T12:17:10;4.33;;;1.50;;
4355;SDS011;64374;51.482;7.408;2023-05-17T12:19:45;4.90;;;2.10;;
4355;SDS011;64374;51.482;7.408;2023-05-17T12:22:14;7.03;;;1.67;;
4355;SDS011;64374;51.482;7.408;2023-05-17T12:24:43;8.23;;;2.23;;
4355;SDS011;64374;51.482;7.408;2023-05-17T12:27:13;5.87;;;2.27;;
4355;SDS011;64374;51.482;7.408;2023-05-17T12:29:53;7.20;;;1.90;;
4355;SDS011;64374;51.482;7.408;2023-05-17T12:32:22;7.83;;;2.00;;
4355;SDS011;64374;51.482;7.408;2023-05-17T12:34:52;8.63;;;2.60;;
4355;SDS011;64374;51.482;7.408;2023-05-17T12:37:20;9.27;;;2.73;;
4355;SDS011;64374;51.482;7.408;2023-05-17T12:39:49;6.63;;;2.03;;
4355;SDS011;64374;51.482;7.408;2023-05-17T12:42:19;10.87;;;2.30;;
4355;SDS011;64374;51.482;7.408;2023-05-17T12:44:47;6.03;;;2.43;;
4355;SDS011;64374;51.482;7.408;2023-05-17T12:47:16;9.40;;;3.33;;
4355;SDS011;64374;51.482;7.408;2023-05-17T12:49:50;6.77;;;2.03;;
4355;SDS011;64374;51.482;7.408;2023-05-17T12:52:21;7.17;;;2.10;;
4355;SDS011;64374;51.482;7.408;2023-05-17T12:54:50;5.70;;;2.50;;
4355;SDS011;64374;51.482;7.408;2023-05-17T12:57:20;6.30;;;2.20;;
4355;SDS011;64374;51.482;7.408;2023-05-17T12:59:48;6.47;;;2.50;;
4355;SDS011;64374;51.482;7.408;2023-05-17T13:02:19;6.83;;;2.37;;
4355;SDS011;64374;51.482;7.408;2023-05-17T13:04:49;6.30;;;2.00;;
4355;SDS011;64374;51.482;7.408;2023-05-17T13:07:21;8.50;;;3.33;;
4355;SDS011;64374;51.482;7.408;2023-05-17T13:09:50;12.73;;;3.30;;
4355;SDS011;64374;51.482;7.408;2023-05-17T13:12:21;10.90;;;3.50;;
4355;SDS011;64374;51.482;7.408;2023-05-17T13:14:51;25.37;;;4.63;;
4355;SDS011;64374;51.482;7.408;2023-05-17T13:17:22;5.87;;;2.20;;
4355;SDS011;64374;51.482;7.408;2023-05-17T13:19:52;4.77;;;2.20;;
4355;SDS011;64374;51.482;7.408;2023-05-17T13:22:23;5.60;;;1.93;;
4355;SDS011;64374;51.482;7.408;2023-05-17T13:24:52;4.93;;;2.07;;
4355;SDS011;64374;51.482;7.408;2023-05-17T13:27:25;7.07;;;2.00;;
4355;SDS011;64374;51.482;7.408;2023-05-17T13:29:54;4.30;;;2.03;;
4355;SDS011;64374;51.482;7.408;2023-05-17T13:32:23;4.57;;;1.90;;
4355;SDS011;64374;51.482;7.408;2023-05-17T13:34:52;8.47;;;2.00;;
4355;SDS011;64374;51.482;7.408;2023-05-17T13:37:23;6.90;;;2.43;;
4355;SDS011;64374;51.482;7.408;2023-05-17T13:39:52;4.83;;;2.00;;
4355;SDS011;64374;51.482;7.408;2023-05-17T13:42:23;4.40;;;1.73;;
4355;SDS011;64374;51.482;7.408;2023-05-17T13:44:52;12.10;;;2.17;;
4355;SDS011;64374;51.482;7.408;2023-05-17T13:47:20;7.80;;;2.40;;
4355;SDS011;64374;51.482;7.408;2023-05-17T13:49:49;6.07;;;2.70;;
4355;SDS011;64374;51.482;7.408;2023-05-17T13:52:19;6.93;;;1.90;;
4355;SDS011;64374;51.482;7.408;2023-05-17T13:54:48;6.63;;;2.10;;
4355;SDS011;64374;51.482;7.408;2023-05-17T13:57:17;7.27;;;1.97;;
4355;SDS011;64374;51.482;7.408;2023-05-17T13:59:47;8.53;;;2.33;;
4355;SDS011;64374;51.482;7.408;2023-05-17T14:02:15;8.43;;;2.90;;
4355;SDS011;64374;51.482;7.408;2023-05-17T14:04:45;3.60;;;1.97;;
4355;SDS011;64374;51.482;7.408;2023-05-17T14:07:13;8.90;;;2.43;;
4355;SDS011;64374;51.482;7.408;2023-05-17T14:09:42;11.50;;;2.47;;
4355;SDS011;64374;51.482;7.408;2023-05-17T14:12:13;7.63;;;1.77;;
4355;SDS011;64374;51.482;7.408;2023-05-17T14:14:41;15.83;;;2.47;;
4355;SDS011;64374;51.482;7.408;2023-05-17T14:17:11;9.97;;;2.70;;
4355;SDS011;64374;51.482;7.408;2023-05-17T14:19:39;8.80;;;2.57;;
4355;SDS011;64374;51.482;7.408;2023-05-17T14:22:08;6.53;;;2.73;;
4355;SDS011;64374;51.482;7.408;2023-05-17T14:24:43;6.03;;;2.30;;
4355;SDS011;64374;51.482;7.408;2023-05-17T14:27:11;6.37;;;2.40;;
4355;SDS011;64374;51.482;7.408;2023-05-17T14:29:39;8.43;;;2.20;;
4355;SDS011;64374;51.482;7.408;2023-05-17T14:32:08;6.80;;;2.57;;
4355;SDS011;64374;51.482;7.408;2023-05-17T14:34:39;9.93;;;3.00;;
4355;SDS011;64374;51.482;7.408;2023-05-17T14:37:08;9.07;;;3.40;;
4355;SDS011;64374;51.482;7.408;2023-05-17T14:39:36;8.53;;;2.80;;
4355;SDS011;64374;51.482;7.408;2023-05-17T14:42:05;9.03;;;2.90;;
4355;SDS011;64374;51.482;7.408;2023-05-17T14:44:33;7.30;;;2.73;;
4355;SDS011;64374;51.482;7.408;2023-05-17T14:47:05;14.40;;;8.70;;
4355;SDS011;64374;51.482;7.408;2023-05-17T14:49:34;9.17;;;3.40;;
4355;SDS011;64374;51.482;7.408;2023-05-17T14:52:04;11.93;;;3.20;;
4355;SDS011;64374;51.482;7.408;2023-05-17T14:54:33;8.93;;;3.03;;
4355;SDS011;64374;51.482;7.408;2023-05-17T14:57:01;5.80;;;2.00;;
4355;SDS011;64374;51.482;7.408;2023-05-17T14:59:30;7.70;;;2.60;;
4355;SDS011;64374;51.482;7.408;2023-05-17T15:01:59;6.87;;;2.63;;
4355;SDS011;64374;51.482;7.408;2023-05-17T15:04:27;6.47;;;1.90;;
4355;SDS011;64374;51.482;7.408;2023-05-17T15:06:56;8.43;;;2.77;;
4355;SDS011;64374;51.482;7.408;2023-05-17T15:09:27;8.77;;;2.93;;
4355;SDS011;64374;51.482;7.408;2023-05-17T15:11:56;10.20;;;2.80;;
4355;SDS011;64374;51.482;7.408;2023-05-17T15:14:24;8.53;;;3.30;;
4355;SDS011;64374;51.482;7.408;2023-05-17T15:16:52;6.17;;;2.60;;
4355;SDS011;64374;51.482;7.408;2023-05-17T15:19:22;8.47;;;2.67;;
4355;SDS011;64374;51.482;7.408;2023-05-17T15:21:51;7.53;;;2.60;;
4355;SDS011;64374;51.482;7.408;2023-05-17T15:24:20;11.17;;;2.83;;
4355;SDS011;64374;51.482;7.408;2023-05-17T15:26:50;11.00;;;3.13;;
4355;SDS011;64374;51.482;7.408;2023-05-17T15:29:19;9.53;;;2.83;;